Clairfield, Tennessee
Current Conditions -  °F | °C
As of 5:15 PM on Tuesday 25 Nov 2014 (Local Time) from K1A6 Reporting Station
Clear Clear  
Wind Chill: 51°   Ceiling: Unl
Heat Index: 51°   Visibility: 10mi
Dew Point: 28°   Wind: 5mph
Humidity: 40%   Direction: 350°N
Pressure: 30.06"   Gusts: NA
Location:  36.55°N, 83.95°W
Report Text: K1A6 252215Z AUTO 35004KT 10SM CLR 11/M02 A3006 RMK AO2 T01071024
Loading
Personal Weather Stations






























Interactive Weather Map New forecast layout! Learn more

10-Day Weather Forecast

Advertisements
Track Severe Weather on mobile